Date,TemperatureHighF,TemperatureAvgF,TemperatureLowF,DewpointHighF,DewpointAvgF,DewpointLowF,HumidityHigh,HumidityAvg,HumidityLow,PressureMaxIn,PressureMinIn,WindSpeedMaxMPH,WindSpeedAvgMPH,GustSpeedMaxMPH,PrecipitationSumIn
2013-1-1,20.9,13.9,8.5,14.2,8.2,4.9,86,78,59,30.30,30.17,15,5,17,0.00
2013-1-2,31.9,19.2,7.4,23.7,13.4,3.1,86,78,64,30.26,30.12,14,5,20,0.00
2013-1-3,28.8,23.8,13.1,26.2,20.0,10.0,93,85,70,30.33,30.14,14,7,20,0.00
2013-1-4,33.5,22.2,11.2,24.8,17.9,8.3,91,84,69,30.32,30.22,16,7,24,0.00
2013-1-5,35.6,29.1,18.0,33.5,27.1,16.0,96,92,78,30.27,29.97,15,7,25,0.05
2013-1-6,34.4,23.2,15.6,33.0,20.3,12.9,95,88,81,30.36,29.96,16,7,22,0.00
2013-1-7,40.6,27.4,15.5,29.1,22.8,12.8,93,84,60,30.36,30.12,19,8,26,0.00
2013-1-8,44.2,34.0,25.7,33.4,29.1,23.4,92,83,63,30.16,30.04,14,7,20,0.00
2013-1-9,46.2,36.6,28.4,36.0,29.7,23.6,91,77,53,30.51,30.03,18,7,26,0.00
2013-1-10,41.9,34.8,25.3,40.2,29.9,22.1,98,83,58,30.50,29.86,15,6,21,0.60
2013-1-11,50.5,46.4,40.9,50.2,45.7,40.2,99,98,92,29.86,29.67,15,8,21,0.38
2013-1-12,50.3,36.7,24.3,47.6,33.6,22.8,94,88,81,30.00,29.68,16,8,23,0.00
2013-1-13,24.2,17.9,11.0,22.4,14.4,7.1,94,86,79,30.30,29.90,14,7,21,0.00
2013-1-14,21.9,14.4,8.2,13.8,9.4,5.5,89,81,65,30.50,30.30,8,2,12,0.00
2013-1-15,27.3,19.4,12.3,19.4,13.8,8.0,87,79,65,30.49,30.17,8,1,9,0.03
2013-1-16,35.2,25.6,13.1,31.7,20.5,9.7,88,81,67,30.17,29.89,19,6,26,0.00
2013-1-17,35.4,25.1,19.4,31.9,19.0,13.2,91,78,60,30.44,30.11,12,4,18,0.00
2013-1-18,41.4,32.0,18.9,33.4,26.3,14.9,89,80,70,30.46,29.94,21,9,28,0.06
2013-1-19,47.1,39.2,23.6,39.9,32.5,14.9,84,77,59,30.01,29.75,25,10,34,0.00
2013-1-20,23.5,15.9,11.6,15.0,7.7,4.9,78,70,59,30.35,30.01,19,7,26,0.00
2013-1-21,12.3,7.7,3.9,9.1,0.3,-3.7,88,72,57,30.35,30.21,18,9,25,0.00
2013-1-22,12.6,9.0,0.2,2.4,0.2,-5.5,82,67,60,30.47,30.35,13,6,20,0.00
2013-1-23,23.1,15.4,9.7,15.4,8.6,1.9,87,74,65,30.43,30.17,23,6,29,0.00
2013-1-24,20.4,13.0,3.9,10.6,4.4,-2.4,76,68,58,30.69,30.38,17,7,23,0.00
2013-1-25,32.0,22.6,16.2,22.4,16.0,8.1,92,76,61,30.38,30.01,16,7,24,0.01
2013-1-26,25.4,18.4,7.5,17.5,11.5,3.8,86,75,59,30.44,30.25,8,3,13,0.00
2013-1-27,31.4,26.8,24.1,29.9,21.9,17.4,94,82,75,30.39,30.09,18,9,24,0.00
2013-1-28,46.7,41.9,38.4,46.3,41.6,38.0,99,99,98,29.96,29.75,12,4,16,0.91
2013-1-29,62.1,54.0,42.5,60.1,53.4,41.9,100,98,92,29.75,29.38,16,6,23,0.85
2013-1-30,42.2,30.6,17.0,41.9,29.7,13.2,99,96,85,29.71,29.23,18,9,25,0.28
2013-1-31,17.2,10.5,2.0,14.0,6.3,-2.8,89,83,77,30.28,29.71,20,12,32,0.00